createdAt,value
2019-01-28T00:00:42.944Z,90.90
2019-01-28T00:03:48.179Z,90.11
2019-01-28T00:06:53.324Z,89.87
2019-01-28T00:09:58.537Z,90.18
2019-01-28T00:13:03.639Z,90.61
2019-01-28T00:16:08.773Z,89.42
2019-01-28T00:19:13.998Z,89.68
2019-01-28T00:22:19.263Z,90.13
2019-01-28T00:25:24.389Z,91.03
2019-01-28T00:28:30.373Z,89.62
2019-01-28T00:31:35.562Z,89.14
2019-01-28T00:34:40.701Z,90.13
2019-01-28T00:37:46.301Z,90.31
2019-01-28T00:40:51.432Z,90.20
2019-01-28T00:43:56.651Z,89.45
2019-01-28T00:47:01.807Z,89.43
2019-01-28T00:50:07.759Z,89.47
2019-01-28T00:53:13.021Z,89.00
2019-01-28T00:56:19.357Z,87.97
2019-01-28T00:59:24.512Z,88.27
2019-01-28T01:02:29.659Z,89.33
2019-01-28T01:05:34.785Z,89.22
2019-01-28T01:08:39.882Z,88.72
2019-01-28T01:11:45.077Z,87.75
2019-01-28T01:14:50.213Z,87.44
2019-01-28T01:17:55.350Z,87.80
2019-01-28T01:21:00.437Z,87.83
2019-01-28T01:24:05.646Z,88.16
2019-01-28T01:27:10.775Z,88.47
2019-01-28T01:30:17.419Z,87.42
2019-01-28T01:33:22.558Z,88.17
2019-01-28T01:36:27.687Z,89.11
2019-01-28T01:39:32.835Z,89.53
2019-01-28T01:42:37.960Z,88.75
2019-01-28T01:45:44.150Z,88.18
2019-01-28T01:48:49.415Z,88.42
2019-01-28T01:51:54.537Z,87.88
2019-01-28T01:54:59.640Z,88.27
2019-01-28T01:58:04.916Z,88.79
2019-01-28T02:01:10.047Z,87.59
2019-01-28T02:04:15.246Z,88.02
2019-01-28T02:07:20.394Z,87.74
2019-01-28T02:10:25.514Z,87.48
2019-01-28T02:13:30.655Z,87.33
2019-01-28T02:16:35.749Z,86.32
2019-01-28T02:19:40.866Z,86.57
2019-01-28T02:22:46.002Z,87.12
2019-01-28T02:25:51.190Z,87.64
2019-01-28T02:28:56.337Z,87.37
2019-01-28T02:32:01.455Z,86.79
2019-01-28T02:35:07.933Z,86.63
2019-01-28T02:38:13.200Z,86.37
2019-01-28T02:41:18.388Z,86.63
2019-01-28T02:44:23.485Z,86.13
2019-01-28T02:47:28.607Z,85.59
2019-01-28T02:50:33.741Z,86.03
2019-01-28T02:53:38.866Z,87.21
2019-01-28T02:56:43.945Z,86.56
2019-01-28T02:59:49.155Z,86.67
2019-01-28T03:02:54.407Z,86.55
2019-01-28T03:05:59.489Z,85.44
2019-01-28T03:09:07.548Z,86.18
2019-01-28T03:12:12.732Z,86.34
2019-01-28T03:15:18.515Z,86.36
2019-01-28T03:18:23.681Z,85.83
2019-01-28T03:21:28.811Z,85.73
2019-01-28T03:24:34.061Z,85.38
2019-01-28T03:27:40.426Z,84.93
2019-01-28T03:30:45.661Z,85.45
2019-01-28T03:33:50.707Z,86.07
2019-01-28T03:36:55.909Z,86.09
2019-01-28T03:40:01.074Z,86.34
2019-01-28T03:43:06.222Z,87.47
2019-01-28T03:46:11.572Z,87.11
2019-01-28T03:49:16.651Z,86.96
2019-01-28T03:52:21.765Z,86.86
2019-01-28T03:55:26.861Z,86.21
2019-01-28T03:58:31.955Z,85.80
2019-01-28T04:01:37.067Z,85.31
2019-01-28T04:04:42.129Z,85.69
2019-01-28T04:07:47.533Z,85.72
2019-01-28T04:10:52.706Z,86.75
2019-01-28T04:13:57.835Z,86.32
2019-01-28T04:17:03.001Z,87.01
2019-01-28T04:20:09.764Z,86.79
2019-01-28T04:23:14.950Z,87.29
2019-01-28T04:26:22.592Z,87.35
2019-01-28T04:29:27.680Z,87.61
2019-01-28T04:32:32.786Z,86.89
2019-01-28T04:35:37.943Z,86.66
2019-01-28T04:38:43.109Z,87.04
2019-01-28T04:41:48.212Z,87.28
2019-01-28T04:44:53.328Z,87.04
2019-01-28T04:47:58.410Z,86.89
2019-01-28T04:51:03.541Z,86.92
2019-01-28T04:54:08.654Z,86.83
2019-01-28T04:57:13.739Z,87.76
2019-01-28T05:00:23.911Z,86.39
2019-01-28T05:03:29.004Z,87.56
2019-01-28T05:06:34.184Z,87.26
2019-01-28T05:09:39.307Z,87.25
2019-01-28T05:12:44.694Z,88.15
2019-01-28T05:15:49.747Z,87.26
2019-01-28T05:18:54.859Z,87.04
2019-01-28T05:22:00.101Z,86.71
2019-01-28T05:25:06.112Z,87.10
2019-01-28T05:28:11.212Z,87.92
2019-01-28T05:31:16.350Z,87.57
2019-01-28T05:34:21.531Z,87.64
2019-01-28T05:37:26.640Z,87.30
2019-01-28T05:40:31.831Z,88.65
2019-01-28T05:43:36.893Z,88.70
2019-01-28T05:46:42.022Z,89.39
2019-01-28T05:49:47.172Z,90.26
2019-01-28T05:52:52.290Z,89.98
2019-01-28T05:55:57.376Z,89.34
2019-01-28T05:59:05.789Z,90.07
2019-01-28T06:02:10.885Z,89.91
2019-01-28T06:05:16.286Z,89.65
2019-01-28T06:08:21.466Z,89.46
2019-01-28T06:11:26.549Z,88.46
2019-01-28T06:14:40.610Z,88.78
2019-01-28T06:17:45.862Z,88.80
2019-01-28T06:20:50.930Z,87.91
2019-01-28T06:23:56.167Z,88.36
2019-01-28T06:27:01.248Z,89.00
2019-01-28T06:30:08.884Z,88.39
2019-01-28T06:33:13.964Z,89.33
2019-01-28T06:36:19.192Z,89.36
2019-01-28T06:39:24.280Z,90.06
2019-01-28T06:42:29.404Z,90.09
2019-01-28T06:45:34.547Z,89.71
2019-01-28T06:48:39.678Z,89.88
2019-01-28T06:51:44.812Z,90.50
2019-01-28T06:54:50.002Z,90.57
2019-01-28T06:57:55.161Z,90.25
2019-01-28T07:01:00.330Z,90.16
2019-01-28T07:04:05.852Z,89.71
2019-01-28T07:07:10.976Z,89.92
2019-01-28T07:10:16.420Z,90.15
2019-01-28T07:13:21.697Z,89.99
2019-01-28T07:16:26.824Z,89.55
2019-01-28T07:19:31.958Z,89.70
2019-01-28T07:22:37.091Z,89.30
2019-01-28T07:25:42.226Z,89.39
2019-01-28T07:28:47.313Z,89.66
2019-01-28T07:31:52.542Z,89.21
2019-01-28T07:34:57.651Z,89.07
2019-01-28T07:38:02.858Z,89.20
2019-01-28T07:41:08.023Z,89.17
2019-01-28T07:44:13.084Z,89.31
2019-01-28T07:47:18.233Z,89.81
2019-01-28T07:50:23.389Z,89.90
2019-01-28T07:53:28.570Z,89.25
2019-01-28T07:56:33.680Z,89.77
2019-01-28T07:59:44.823Z,89.63
2019-01-28T08:02:49.940Z,90.01
2019-01-28T08:05:55.036Z,90.72
2019-01-28T08:09:00.176Z,89.92
2019-01-28T08:12:05.523Z,88.66
2019-01-28T08:15:12.914Z,89.49
2019-01-28T08:18:18.096Z,90.01
2019-01-28T08:21:23.191Z,90.52
2019-01-28T08:24:28.332Z,90.10
2019-01-28T08:27:35.116Z,90.46
2019-01-28T08:30:40.342Z,90.56
2019-01-28T08:33:45.474Z,90.16
2019-01-28T08:36:50.547Z,90.44
2019-01-28T08:39:55.797Z,90.99
2019-01-28T08:43:00.879Z,91.22
2019-01-28T08:46:06.148Z,91.23
2019-01-28T08:49:11.216Z,90.87
2019-01-28T08:52:16.361Z,91.36
2019-01-28T08:55:23.355Z,91.37
2019-01-28T08:58:28.476Z,91.65
2019-01-28T09:01:33.619Z,91.42
2019-01-28T09:04:38.696Z,90.79
2019-01-28T09:07:43.996Z,90.56
2019-01-28T09:10:49.086Z,90.50
2019-01-28T09:13:54.259Z,90.53
2019-01-28T09:16:59.423Z,89.77
2019-01-28T09:20:05.831Z,89.25
2019-01-28T09:23:10.970Z,89.53
2019-01-28T09:26:16.092Z,88.76
2019-01-28T09:29:21.260Z,88.69
2019-01-28T09:32:26.373Z,88.78
2019-01-28T09:35:31.522Z,87.83
2019-01-28T09:38:36.666Z,88.11
2019-01-28T09:41:41.806Z,88.37
2019-01-28T09:44:47.007Z,88.40
2019-01-28T09:47:52.070Z,88.08
2019-01-28T09:50:57.197Z,87.02
2019-01-28T09:54:02.264Z,86.20
2019-01-28T09:57:07.506Z,87.82
2019-01-28T10:00:16.899Z,88.07
2019-01-28T10:03:32.198Z,88.69
2019-01-28T10:06:37.377Z,86.71
2019-01-28T10:09:42.575Z,87.17
2019-01-28T10:12:47.796Z,87.92
2019-01-28T10:15:52.929Z,87.43
2019-01-28T10:18:58.044Z,86.45
2019-01-28T10:22:03.147Z,86.62
2019-01-28T10:25:08.586Z,86.75
2019-01-28T10:28:13.724Z,86.09
2019-01-28T10:31:18.804Z,86.06
2019-01-28T10:34:24.105Z,85.63
2019-01-28T10:37:29.149Z,86.14
2019-01-28T10:40:34.817Z,86.75
2019-01-28T10:43:39.893Z,86.26
2019-01-28T10:46:45.049Z,87.37
2019-01-28T10:49:50.274Z,87.27
2019-01-28T10:52:55.688Z,87.39
2019-01-28T10:56:00.924Z,86.73
2019-01-28T10:59:06.318Z,87.13
2019-01-28T11:02:11.640Z,86.23
2019-01-28T11:05:16.872Z,87.90
2019-01-28T11:08:22.032Z,88.31
2019-01-28T11:11:27.250Z,87.46
2019-01-28T11:14:32.510Z,87.41
2019-01-28T11:17:37.836Z,86.76
2019-01-28T11:20:43.136Z,87.03
2019-01-28T11:23:49.781Z,88.04
2019-01-28T11:26:54.824Z,88.23
2019-01-28T11:30:01.106Z,87.42
2019-01-28T11:33:06.501Z,87.40
2019-01-28T11:36:12.377Z,87.61
2019-01-28T11:39:17.618Z,86.90
2019-01-28T11:42:22.843Z,88.09
2019-01-28T11:45:30.558Z,88.45
2019-01-28T11:48:35.806Z,87.07
2019-01-28T11:51:41.004Z,87.05
2019-01-28T11:54:46.210Z,86.72
2019-01-28T11:57:51.335Z,86.04
2019-01-28T12:01:27.395Z,86.54
2019-01-28T12:04:32.570Z,85.66
2019-01-28T12:07:37.728Z,86.71
2019-01-28T12:10:42.886Z,86.03
2019-01-28T12:13:48.038Z,86.39
2019-01-28T12:16:53.165Z,86.72
2019-01-28T12:19:58.423Z,88.18
2019-01-28T12:23:03.617Z,88.59
2019-01-28T12:26:08.733Z,87.03
2019-01-28T12:29:13.873Z,87.40
2019-01-28T12:32:19.068Z,87.82
2019-01-28T12:35:24.358Z,88.74
2019-01-28T12:38:29.601Z,88.88
2019-01-28T12:41:34.769Z,88.75
2019-01-28T12:44:39.899Z,88.82
2019-01-28T12:47:45.114Z,89.08
2019-01-28T12:50:50.181Z,88.55
2019-01-28T12:53:55.286Z,88.43
2019-01-28T12:57:00.394Z,88.73
2019-01-28T13:00:08.007Z,89.68
2019-01-28T13:03:13.473Z,89.46
2019-01-28T13:06:18.594Z,88.82
2019-01-28T13:09:23.740Z,89.28
2019-01-28T13:12:28.868Z,89.89
2019-01-28T13:15:34.054Z,88.80
2019-01-28T13:18:39.227Z,88.73
2019-01-28T13:21:44.299Z,87.95
2019-01-28T13:24:49.411Z,88.93
2019-01-28T13:27:54.553Z,88.67
2019-01-28T13:30:59.764Z,88.99
2019-01-28T13:34:05.107Z,89.69
2019-01-28T13:37:10.205Z,89.47
2019-01-28T13:40:16.185Z,89.22
2019-01-28T13:43:21.338Z,89.44
2019-01-28T13:46:26.575Z,89.49
2019-01-28T13:49:38.147Z,89.30
2019-01-28T13:52:38.562Z,88.91
2019-01-28T13:55:43.677Z,88.94
2019-01-28T13:58:48.780Z,88.96
2019-01-28T14:01:54.019Z,89.05
2019-01-28T14:04:59.068Z,89.49
2019-01-28T14:08:04.586Z,89.35
2019-01-28T14:11:09.702Z,88.99
2019-01-28T14:14:14.793Z,89.79
2019-01-28T14:17:19.947Z,90.52
2019-01-28T14:20:25.791Z,90.11
2019-01-28T14:23:30.888Z,90.17
2019-01-28T14:26:36.966Z,88.42
2019-01-28T14:29:42.122Z,88.76
2019-01-28T14:32:47.302Z,89.01
2019-01-28T14:35:52.440Z,88.67
2019-01-28T14:38:57.629Z,89.37
2019-01-28T14:42:02.751Z,87.99
2019-01-28T14:45:09.145Z,88.86
2019-01-28T14:48:14.841Z,89.23
2019-01-28T14:51:20.032Z,89.16
2019-01-28T14:54:25.264Z,88.80
2019-01-28T14:57:30.411Z,89.45
2019-01-28T15:00:37.295Z,89.59
2019-01-28T15:03:42.499Z,89.75
2019-01-28T15:06:47.647Z,90.47
2019-01-28T15:09:52.861Z,89.93
2019-01-28T15:12:57.943Z,90.09
2019-01-28T15:16:03.190Z,89.72
2019-01-28T15:19:08.386Z,90.48
2019-01-28T15:22:13.525Z,88.93
2019-01-28T15:25:18.668Z,89.59
2019-01-28T15:28:23.847Z,90.83
2019-01-28T15:31:29.041Z,90.59
2019-01-28T15:34:35.266Z,90.83
2019-01-28T15:37:40.452Z,89.89
2019-01-28T15:40:45.662Z,90.04
2019-01-28T15:43:50.857Z,89.88
2019-01-28T15:46:56.023Z,89.18
2019-01-28T15:50:01.156Z,87.70
2019-01-28T15:53:07.543Z,88.79
2019-01-28T15:56:12.742Z,89.87
2019-01-28T15:59:17.806Z,90.09
2019-01-28T16:02:22.880Z,90.60
2019-01-28T16:05:28.029Z,89.59
2019-01-28T16:08:33.180Z,90.07
2019-01-28T16:11:38.351Z,90.01
2019-01-28T16:14:43.504Z,89.49
2019-01-28T16:17:49.673Z,89.56
2019-01-28T16:20:54.863Z,89.57
2019-01-28T16:24:00.037Z,89.03
2019-01-28T16:27:05.389Z,89.17
2019-01-28T16:30:14.328Z,88.00
2019-01-28T16:33:19.606Z,89.37
2019-01-28T16:36:24.784Z,90.11
2019-01-28T16:39:29.985Z,88.82
2019-01-28T16:42:35.613Z,90.33
2019-01-28T16:45:46.148Z,89.86
2019-01-28T16:48:51.269Z,90.90
2019-01-28T16:51:56.406Z,88.87
2019-01-28T16:55:01.543Z,89.58
2019-01-28T16:58:08.103Z,89.14
2019-01-28T17:01:14.226Z,89.25
2019-01-28T17:04:19.428Z,88.78
2019-01-28T17:07:24.524Z,89.14
2019-01-28T17:10:29.914Z,90.02
2019-01-28T17:13:35.045Z,90.23
2019-01-28T17:16:40.179Z,89.65
2019-01-28T17:19:45.351Z,89.95
2019-01-28T17:22:50.574Z,89.63
2019-01-28T17:25:55.693Z,90.77
2019-01-28T17:29:00.833Z,90.60
2019-01-28T17:32:06.006Z,90.24
2019-01-28T17:35:11.213Z,89.47
2019-01-28T17:38:16.505Z,90.35
2019-01-28T17:41:21.649Z,90.13
2019-01-28T17:44:26.787Z,90.29
2019-01-28T17:47:31.947Z,89.99
2019-01-28T17:50:43.383Z,90.72
2019-01-28T17:53:44.161Z,89.59
2019-01-28T17:56:49.542Z,89.98
2019-01-28T17:59:54.663Z,90.03
2019-01-28T18:02:59.824Z,89.65
2019-01-28T18:06:05.039Z,89.94
2019-01-28T18:09:10.513Z,88.93
2019-01-28T18:12:16.181Z,89.03
2019-01-28T18:15:21.341Z,89.99
2019-01-28T18:18:26.596Z,89.48
2019-01-28T18:21:31.729Z,90.44
2019-01-28T18:24:36.952Z,89.72
2019-01-28T18:27:42.075Z,89.44
2019-01-28T18:30:49.361Z,89.96
2019-01-28T18:33:54.517Z,89.80
2019-01-28T18:36:59.838Z,89.33
2019-01-28T18:40:06.725Z,89.78
2019-01-28T18:43:12.003Z,90.22
2019-01-28T18:46:17.226Z,88.76
2019-01-28T18:49:22.398Z,89.20
2019-01-28T18:52:33.346Z,89.01
2019-01-28T18:55:39.470Z,88.83
2019-01-28T18:58:44.660Z,89.20
2019-01-28T19:01:49.775Z,88.35
2019-01-28T19:04:55.478Z,87.57
2019-01-28T19:08:03.150Z,87.74
2019-01-28T19:11:30.451Z,87.66
2019-01-28T19:15:02.192Z,88.56
2019-01-28T19:18:27.255Z,86.05
2019-01-28T19:21:46.856Z,86.83
2019-01-28T19:24:52.020Z,87.56
2019-01-28T19:27:57.175Z,88.28
2019-01-28T19:31:02.527Z,87.30
2019-01-28T19:34:08.355Z,88.61
2019-01-28T19:37:13.661Z,88.82
2019-01-28T19:40:18.847Z,86.80
2019-01-28T19:43:24.053Z,87.06
2019-01-28T19:46:29.292Z,87.87
2019-01-28T19:49:34.383Z,88.48
2019-01-28T19:52:41.810Z,87.88
2019-01-28T19:55:47.951Z,88.06
2019-01-28T19:58:53.183Z,88.55
2019-01-28T20:01:58.497Z,89.11
2019-01-28T20:05:04.480Z,90.08
2019-01-28T20:08:09.732Z,88.23
2019-01-28T20:11:14.976Z,88.35
2019-01-28T20:14:20.219Z,87.94
2019-01-28T20:17:25.320Z,88.26
2019-01-28T20:20:30.490Z,88.80
2019-01-28T20:23:37.560Z,89.12
2019-01-28T20:26:42.759Z,88.76
2019-01-28T20:29:49.728Z,89.63
2019-01-28T20:32:54.928Z,90.49
2019-01-28T20:36:00.161Z,90.65
2019-01-28T20:39:08.918Z,88.78
2019-01-28T20:42:14.355Z,88.80
2019-01-28T20:45:21.162Z,89.46
2019-01-28T20:48:26.410Z,88.91
2019-01-28T20:51:32.466Z,89.30
2019-01-28T20:54:37.970Z,88.72
2019-01-28T20:57:43.204Z,88.57
2019-01-28T21:00:48.528Z,87.97
2019-01-28T21:03:53.819Z,88.57
2019-01-28T21:06:58.936Z,87.33
2019-01-28T21:10:05.090Z,88.47
2019-01-28T21:13:10.395Z,89.51
2019-01-28T21:16:15.535Z,89.03
2019-01-28T21:19:20.748Z,88.21
2019-01-28T21:22:25.979Z,88.80
2019-01-28T21:25:31.218Z,88.38
2019-01-28T21:28:36.395Z,88.79
2019-01-28T21:31:41.591Z,88.30
2019-01-28T21:34:46.750Z,88.61
2019-01-28T21:38:02.151Z,88.65
2019-01-28T21:41:07.304Z,89.57
2019-01-28T21:44:13.539Z,88.97
2019-01-28T21:47:18.646Z,88.44
2019-01-28T21:50:25.410Z,89.44
2019-01-28T21:53:30.611Z,89.74
2019-01-28T21:56:35.794Z,90.90
2019-01-28T21:59:40.990Z,89.07
2019-01-28T22:02:46.242Z,88.49
2019-01-28T22:05:51.433Z,86.85
2019-01-28T22:08:56.617Z,86.94
2019-01-28T22:12:01.775Z,87.63
2019-01-28T22:15:10.549Z,86.37
2019-01-28T22:18:15.791Z,87.67
2019-01-28T22:21:21.002Z,87.73
2019-01-28T22:24:26.223Z,87.86
2019-01-28T22:27:31.430Z,88.00
2019-01-28T22:30:36.566Z,86.25
2019-01-28T22:33:41.830Z,85.60
2019-01-28T22:36:46.977Z,86.21
2019-01-28T22:39:52.114Z,87.29
2019-01-28T22:42:58.332Z,88.06
2019-01-28T22:46:03.548Z,88.64
2019-01-28T22:49:08.706Z,87.66
2019-01-28T22:52:13.827Z,88.17
2019-01-28T22:55:20.749Z,89.17
2019-01-28T22:58:25.897Z,88.63
2019-01-28T23:01:34.366Z,86.65
2019-01-28T23:04:39.672Z,87.03
2019-01-28T23:07:44.878Z,86.96
2019-01-28T23:10:50.082Z,85.41
2019-01-28T23:13:55.259Z,85.66
2019-01-28T23:17:00.374Z,85.57
2019-01-28T23:20:06.360Z,85.23
2019-01-28T23:23:11.520Z,85.67
2019-01-28T23:26:16.661Z,85.76
2019-01-28T23:29:21.849Z,85.95
2019-01-28T23:32:27.050Z,86.52
2019-01-28T23:35:32.205Z,85.57
2019-01-28T23:38:37.359Z,84.94
2019-01-28T23:41:42.631Z,84.94
2019-01-28T23:44:47.754Z,86.33
2019-01-28T23:47:52.972Z,86.34
2019-01-28T23:50:58.085Z,87.15
2019-01-28T23:54:03.293Z,86.59
2019-01-28T23:57:08.394Z,86.39
